Terminal Aerodrome Forecast
Issued by NWS Topeka, KS

Home | Current Version | Previous Version | Text Only | Print | Product List | Glossary Off
Versions: 1 2 3 4 5 6 7 8 9 10 11 12 13 14 15 16 17 18 19 20 21 22 23 24 25

000
FTUS43 KTOP 211129
TAFTOP
TAF
KTOP 211129Z 2112/2212 36010KT P6SM SCT100
     FM211700 04011KT P6SM SCT100
     FM220300 06009KT 6SM -SNPL SCT025 OVC040
     FM220600 06008KT 3SM -SNPL OVC015
     FM220900 05008KT 3SM -FZRAPL OVC008=

USA.gov is the U.S. government's official web portal to all federal, state and local government web resources and services.